EST,Max TemperatureF,Mean TemperatureF,Min TemperatureF,Max Dew PointF,MeanDew PointF,Min DewpointF,Max Humidity, Mean Humidity, Min Humidity, Max Sea Level PressureIn, Mean Sea Level PressureIn, Min Sea Level PressureIn, Max VisibilityMiles, Mean VisibilityMiles, Min VisibilityMiles, Max Wind SpeedMPH, Mean Wind SpeedMPH, Max Gust SpeedMPH,PrecipitationIn, CloudCover, Events, WindDirDegrees
2014-1-1,2,-2,-5,-1,-5,-10,88,80,73,30.44,30.37,30.24,10,9,3,15,10,21,0.00,5,Snow,40
2014-1-2,3,-2,-8,0,-7,-12,88,78,60,30.37,30.32,30.29,10,10,7,15,8,16,0.00,5,Snow,39
2014-1-3,17,5,-6,9,1,-11,86,78,63,30.31,30.12,29.74,10,9,2,18,6,31,0.00,7,Snow,173
2014-1-4,28,22,17,28,18,7,99,83,64,29.99,29.73,29.59,10,8,1,22,15,34,0.00,8,Snow,245
2014-1-5,19,15,11,13,9,6,88,78,62,30.10,30.00,29.79,10,10,10,17,7,26,0.00,7,Snow,321
2014-1-6,11,2,-6,6,-2,-11,84,78,69,29.78,29.73,29.68,10,6,1,31,14,38,0.00,7,Snow,304
2014-1-7,4,-2,-7,0,-6,-12,85,80,69,30.08,29.87,29.75,10,5,0,28,21,36,0.00,6,Fog-Snow,267
2014-1-8,13,6,0,8,3,-4,88,78,66,30.39,30.23,30.08,10,10,10,18,12,26,0.00,5,Snow,259
2014-1-9,16,10,3,10,7,1,91,80,69,30.45,30.36,30.17,10,9,3,13,9,20,0.00,5,Snow,190
2014-1-10,32,24,15,32,22,9,100,90,75,30.17,29.92,29.54,10,6,2,12,9,22,0.16,8,Snow,147
2014-1-11,36,33,30,36,33,30,100,99,96,29.52,29.33,29.21,10,5,0,20,9,25,0.07,8,Fog-Snow,248
2014-1-12,38,34,30,30,27,25,97,80,63,29.70,29.59,29.49,10,10,10,20,13,26,0.00,5,,220
2014-1-13,38,34,29,34,31,22,100,88,71,29.58,29.47,29.39,10,9,2,12,8,21,0.00,7,Snow,235
2014-1-14,28,25,22,26,21,17,100,80,64,29.72,29.67,29.58,10,7,0,16,8,28,0.11,8,Snow,341
2014-1-15,22,17,12,22,13,8,98,85,72,29.85,29.76,29.62,10,7,0,21,14,31,0.02,8,Snow,298
2014-1-16,23,20,16,22,17,13,96,88,81,29.70,29.56,29.50,10,6,1,20,12,31,0.00,8,Snow,158
2014-1-17,28,22,17,26,22,14,100,93,84,29.79,29.67,29.57,10,8,2,14,4,18,0.00,8,Snow,318
2014-1-18,20,14,7,18,12,6,98,87,73,29.84,29.78,29.62,10,10,1,10,6,,0.00,4,Snow,259
2014-1-19,26,20,12,25,18,8,99,86,75,29.60,29.42,29.30,10,6,0,26,15,37,0.00,8,Snow,284
2014-1-20,11,4,-4,7,-3,-12,83,73,60,30.14,29.89,29.57,10,10,10,13,9,20,0.00,6,,356
2014-1-21,1,-4,-9,-3,-9,-15,83,76,68,30.24,30.18,30.11,10,9,4,10,6,,0.00,7,,63
2014-1-22,10,5,0,7,0,-4,89,82,75,30.11,29.95,29.83,10,4,0,20,11,25,0.00,8,Snow,120
2014-1-23,5,0,-6,-2,-7,-10,86,74,59,30.39,30.29,30.03,10,9,3,18,11,24,0.00,3,,2
2014-1-24,21,10,-1,20,11,-6,98,91,81,30.25,29.64,29.18,10,2,0,24,12,41,0.00,8,Snow,224
2014-1-25,21,10,0,20,3,-7,98,81,63,29.58,29.37,29.12,10,6,0,29,15,38,0.00,5,Snow,296
2014-1-26,9,2,-6,6,-1,-10,89,84,78,29.57,29.41,29.25,10,5,1,22,10,29,0.00,6,Snow,123
2014-1-27,2,-2,-5,0,-8,-13,87,76,64,30.04,29.83,29.37,10,7,1,23,11,33,0.00,5,Snow,296
2014-1-28,6,0,-7,4,-6,-13,88,80,74,30.07,29.98,29.81,10,7,1,26,18,33,0.00,4,Snow,260
2014-1-29,16,10,4,10,5,1,90,83,76,29.90,29.84,29.76,10,5,1,25,18,37,0.00,6,Snow,241
2014-1-30,27,21,15,24,18,10,98,81,66,29.83,29.63,29.48,10,8,0,16,13,26,0.01,6,Snow,210
2014-1-31,15,12,9,11,8,4,89,81,75,30.04,29.96,29.71,10,9,4,15,10,21,0.00,8,Snow,257